createdAt,value
2022-10-14T00:00:43.732Z,15.07
2022-10-14T00:03:12.111Z,14.57
2022-10-14T00:05:43.629Z,15.18
2022-10-14T00:08:12.041Z,14.93
2022-10-14T00:10:40.713Z,16.05
2022-10-14T00:13:10.478Z,17.20
2022-10-14T00:15:42.262Z,15.48
2022-10-14T00:18:10.870Z,16.38
2022-10-14T00:20:39.215Z,17.45
2022-10-14T00:23:07.568Z,16.02
2022-10-14T00:25:39.219Z,16.65
2022-10-14T00:28:07.763Z,16.10
2022-10-14T00:30:37.507Z,16.38
2022-10-14T00:33:05.909Z,16.83
2022-10-14T00:35:34.261Z,17.88
2022-10-14T00:38:02.612Z,18.65
2022-10-14T00:40:31.013Z,18.75
2022-10-14T00:42:59.367Z,18.05
2022-10-14T00:45:27.766Z,16.83
2022-10-14T00:47:57.496Z,18.58
2022-10-14T00:50:26.106Z,19.02
2022-10-14T00:52:56.158Z,19.30
2022-10-14T00:55:24.500Z,19.35
2022-10-14T00:57:53.021Z,19.42
2022-10-14T01:00:21.977Z,19.73
2022-10-14T01:02:50.887Z,20.13
2022-10-14T01:05:21.672Z,19.60
2022-10-14T01:07:55.967Z,18.25
2022-10-14T01:10:27.379Z,20.20
2022-10-14T01:13:00.505Z,19.98
2022-10-14T01:15:33.440Z,20.13
2022-10-14T01:18:06.275Z,20.63
2022-10-14T01:20:47.119Z,19.95
2022-10-14T01:23:26.991Z,20.38
2022-10-14T01:26:00.192Z,19.88
2022-10-14T01:28:31.111Z,19.48
2022-10-14T01:31:03.101Z,19.17
2022-10-14T01:33:36.773Z,20.67
2022-10-14T01:36:08.920Z,19.05
2022-10-14T01:38:38.840Z,19.05
2022-10-14T01:41:10.206Z,17.35
2022-10-14T01:43:39.782Z,20.45
2022-10-14T01:46:10.259Z,18.75
2022-10-14T01:48:40.700Z,19.58
2022-10-14T01:51:13.440Z,20.50
2022-10-14T01:53:43.986Z,20.45
2022-10-14T01:56:13.768Z,20.08
2022-10-14T01:58:42.971Z,19.33
2022-10-14T02:01:13.485Z,20.42
2022-10-14T02:03:43.009Z,20.10
2022-10-14T02:06:13.367Z,20.52
2022-10-14T02:08:47.872Z,19.77
2022-10-14T02:11:17.389Z,20.27
2022-10-14T02:14:02.172Z,19.60
2022-10-14T02:16:35.876Z,20.00
2022-10-14T02:19:05.571Z,18.75
2022-10-14T02:21:36.297Z,18.70
2022-10-14T02:24:07.714Z,19.60
2022-10-14T02:26:37.935Z,18.60
2022-10-14T02:29:07.288Z,19.02
2022-10-14T02:31:39.782Z,19.48
2022-10-14T02:34:09.177Z,18.90
2022-10-14T02:36:37.719Z,18.65
2022-10-14T02:39:08.272Z,18.05
2022-10-14T02:41:37.567Z,17.38
2022-10-14T02:44:07.175Z,17.48
2022-10-14T02:46:37.521Z,17.67
2022-10-14T02:49:05.950Z,18.30
2022-10-14T02:51:34.436Z,19.08
2022-10-14T02:54:02.855Z,19.00
2022-10-14T02:56:31.475Z,20.27
2022-10-14T02:58:59.930Z,20.20
2022-10-14T03:01:28.382Z,17.90
2022-10-14T03:03:58.275Z,19.83
2022-10-14T03:06:26.982Z,21.48
2022-10-14T03:08:55.394Z,20.50
2022-10-14T03:11:23.888Z,20.83
2022-10-14T03:13:52.321Z,22.33
2022-10-14T03:16:20.711Z,21.70
2022-10-14T03:18:49.103Z,21.67
2022-10-14T03:21:19.116Z,22.40
2022-10-14T03:23:47.665Z,20.63
2022-10-14T03:26:16.138Z,21.83
2022-10-14T03:28:44.613Z,22.63
2022-10-14T03:31:13.154Z,21.10
2022-10-14T03:33:41.501Z,22.85
2022-10-14T03:36:10.005Z,22.27
2022-10-14T03:38:39.854Z,23.35
2022-10-14T03:41:08.523Z,23.42
2022-10-14T03:43:37.005Z,20.92
2022-10-14T03:46:05.481Z,22.27
2022-10-14T03:48:33.885Z,21.67
2022-10-14T03:51:02.293Z,21.08
2022-10-14T03:53:30.789Z,21.80
2022-10-14T03:56:00.672Z,21.88
2022-10-14T03:58:29.055Z,21.08
2022-10-14T04:00:57.469Z,21.63
2022-10-14T04:03:26.087Z,20.52
2022-10-14T04:05:54.582Z,21.48
2022-10-14T04:08:23.197Z,20.33
2022-10-14T04:10:53.888Z,21.42
2022-10-14T04:13:23.863Z,20.30
2022-10-14T04:15:52.306Z,20.42
2022-10-14T04:18:20.890Z,20.40
2022-10-14T04:20:49.423Z,22.30
2022-10-14T04:23:17.863Z,21.27
2022-10-14T04:25:46.570Z,23.33
2022-10-14T04:28:15.003Z,21.73
2022-10-14T04:30:44.956Z,19.38
2022-10-14T04:33:13.412Z,21.92
2022-10-14T04:35:41.814Z,21.10
2022-10-14T04:38:10.190Z,20.67
2022-10-14T04:40:38.738Z,20.80
2022-10-14T04:43:07.347Z,20.40
2022-10-14T04:45:35.846Z,19.73
2022-10-14T04:48:06.341Z,20.80
2022-10-14T04:50:34.725Z,22.40
2022-10-14T04:53:03.340Z,21.50
2022-10-14T04:55:32.074Z,21.48
2022-10-14T04:58:01.449Z,20.55
2022-10-14T05:00:30.792Z,20.08
2022-10-14T05:02:59.153Z,19.80
2022-10-14T05:05:28.922Z,19.20
2022-10-14T05:07:57.353Z,18.70
2022-10-14T05:10:25.925Z,18.60
2022-10-14T05:12:54.343Z,17.95
2022-10-14T05:15:22.744Z,18.20
2022-10-14T05:17:51.168Z,17.35
2022-10-14T05:20:19.645Z,17.92
2022-10-14T05:22:49.550Z,16.83
2022-10-14T05:25:18.060Z,17.27
2022-10-14T05:27:46.889Z,17.13
2022-10-14T05:30:15.524Z,16.60
2022-10-14T05:32:43.992Z,16.67
2022-10-14T05:35:12.544Z,16.92
2022-10-14T05:37:41.273Z,16.20
2022-10-14T05:40:12.439Z,16.33
2022-10-14T05:42:40.871Z,16.23
2022-10-14T05:45:10.868Z,16.15
2022-10-14T05:47:39.419Z,16.70
2022-10-14T05:50:08.453Z,16.75
2022-10-14T05:52:37.077Z,16.60
2022-10-14T05:55:05.678Z,15.70
2022-10-14T05:57:35.675Z,16.73
2022-10-14T06:00:04.209Z,17.13
2022-10-14T06:02:33.138Z,15.50
2022-10-14T06:05:01.595Z,16.17
2022-10-14T06:07:30.010Z,15.13
2022-10-14T06:09:58.387Z,16.02
2022-10-14T06:12:26.851Z,15.82
2022-10-14T06:14:56.886Z,16.63
2022-10-14T06:17:25.276Z,17.23
2022-10-14T06:19:53.620Z,16.83
2022-10-14T06:22:22.474Z,16.55
2022-10-14T06:24:51.012Z,15.82
2022-10-14T06:27:19.657Z,17.75
2022-10-14T06:29:47.998Z,17.08
2022-10-14T06:32:17.790Z,15.88
2022-10-14T06:34:46.248Z,15.98
2022-10-14T06:37:14.916Z,15.93
2022-10-14T06:39:45.211Z,16.20
2022-10-14T06:42:13.652Z,15.30
2022-10-14T06:44:42.123Z,15.60
2022-10-14T06:47:10.545Z,15.60
2022-10-14T06:49:40.331Z,15.05
2022-10-14T06:52:08.772Z,15.68
2022-10-14T06:54:39.386Z,15.77
2022-10-14T06:57:08.077Z,16.33
2022-10-14T06:59:39.030Z,15.75
2022-10-14T07:02:07.493Z,14.85
2022-10-14T07:04:36.092Z,13.98
2022-10-14T07:07:06.293Z,14.27
2022-10-14T07:09:35.051Z,14.43
2022-10-14T07:12:03.725Z,14.32
2022-10-14T07:14:32.138Z,14.27
2022-10-14T07:17:00.870Z,14.13
2022-10-14T07:19:29.276Z,14.07
2022-10-14T07:21:57.741Z,14.10
2022-10-14T07:24:27.668Z,13.45
2022-10-14T07:26:56.517Z,13.20
2022-10-14T07:29:24.932Z,12.82
2022-10-14T07:31:53.523Z,12.50
2022-10-14T07:34:22.282Z,12.32
2022-10-14T07:36:51.124Z,12.35
2022-10-14T07:39:19.662Z,13.30
2022-10-14T07:41:49.599Z,13.40
2022-10-14T07:44:18.644Z,13.52
2022-10-14T07:46:48.835Z,12.27
2022-10-14T07:49:18.092Z,11.82
2022-10-14T07:51:46.872Z,11.10
2022-10-14T07:54:16.407Z,10.98
2022-10-14T07:56:45.360Z,11.45
2022-10-14T07:59:15.154Z,11.25
2022-10-14T08:01:44.045Z,11.23
2022-10-14T08:04:12.734Z,10.80
2022-10-14T08:06:41.110Z,11.02
2022-10-14T08:09:10.115Z,12.43
2022-10-14T08:11:38.874Z,11.07
2022-10-14T08:14:07.334Z,10.82
2022-10-14T08:16:37.490Z,11.48
2022-10-14T08:19:12.681Z,11.18
2022-10-14T08:21:42.741Z,11.23
2022-10-14T08:24:11.832Z,10.73
2022-10-14T08:26:41.067Z,10.77
2022-10-14T08:29:11.655Z,10.85
2022-10-14T08:31:41.475Z,10.13
2022-10-14T08:34:11.149Z,9.93
2022-10-14T08:36:39.620Z,10.20
2022-10-14T08:39:08.038Z,10.23
2022-10-14T08:41:41.636Z,9.77
2022-10-14T08:44:14.369Z,9.23
2022-10-14T08:46:51.016Z,9.15
2022-10-14T08:49:24.434Z,8.35
2022-10-14T08:51:55.718Z,8.32
2022-10-14T08:54:29.990Z,7.15
2022-10-14T08:56:58.656Z,7.43
2022-10-14T08:59:27.605Z,6.72
2022-10-14T09:02:00.499Z,6.80
2022-10-14T09:04:29.093Z,7.00
2022-10-14T09:06:57.608Z,6.18
2022-10-14T09:09:28.455Z,6.45
2022-10-14T09:11:59.146Z,5.82
2022-10-14T09:14:28.755Z,5.32
2022-10-14T09:17:03.374Z,5.28
2022-10-14T09:19:33.437Z,4.93
2022-10-14T09:22:02.839Z,5.25
2022-10-14T09:24:35.381Z,4.57
2022-10-14T09:27:06.535Z,5.10
2022-10-14T09:29:36.045Z,4.60
2022-10-14T09:32:07.392Z,4.70
2022-10-14T09:34:37.414Z,4.82
2022-10-14T09:37:17.658Z,5.43
2022-10-14T09:39:46.238Z,4.78
2022-10-14T09:42:17.321Z,4.88
2022-10-14T09:44:45.679Z,4.70
2022-10-14T09:47:19.080Z,4.88
2022-10-14T09:49:48.932Z,5.25
2022-10-14T09:52:23.159Z,4.28
2022-10-14T09:54:55.340Z,4.13
2022-10-14T09:57:24.304Z,4.30
2022-10-14T09:59:53.883Z,4.40
2022-10-14T10:02:25.320Z,4.63
2022-10-14T10:04:57.287Z,4.22
2022-10-14T10:07:27.885Z,4.53
2022-10-14T10:09:56.409Z,4.80
2022-10-14T10:12:30.800Z,4.15
2022-10-14T10:15:00.229Z,4.38
2022-10-14T10:17:32.736Z,4.18
2022-10-14T10:20:18.094Z,3.80
2022-10-14T10:22:46.671Z,4.50
2022-10-14T10:25:20.390Z,4.70
2022-10-14T10:27:50.735Z,3.95
2022-10-14T10:30:23.548Z,4.15
2022-10-14T10:32:57.168Z,4.25
2022-10-14T10:35:29.952Z,4.72
2022-10-14T10:38:06.702Z,3.88
2022-10-14T10:40:40.993Z,4.70
2022-10-14T10:43:21.015Z,4.45
2022-10-14T10:45:58.652Z,4.68
2022-10-14T10:48:40.011Z,4.45
2022-10-14T10:51:11.599Z,4.35
2022-10-14T10:53:51.392Z,4.53
2022-10-14T10:56:28.361Z,4.28
2022-10-14T10:59:03.867Z,4.43
2022-10-14T11:01:37.922Z,4.72
2022-10-14T11:04:18.229Z,4.90
2022-10-14T11:07:08.987Z,5.32
2022-10-14T11:09:58.925Z,5.05
2022-10-14T11:12:32.741Z,5.30
2022-10-14T11:15:15.418Z,4.95
2022-10-14T11:17:47.555Z,4.80
2022-10-14T11:20:22.832Z,5.30
2022-10-14T11:22:56.618Z,5.50
2022-10-14T11:25:27.958Z,5.60
2022-10-14T11:28:01.968Z,5.47
2022-10-14T11:30:38.111Z,5.53
2022-10-14T11:33:18.377Z,6.30
2022-10-14T11:35:53.141Z,7.38
2022-10-14T11:38:30.467Z,7.13
2022-10-14T11:41:01.939Z,7.13
2022-10-14T11:43:35.383Z,7.13
2022-10-14T11:46:07.157Z,8.18
2022-10-14T11:48:37.553Z,8.50
2022-10-14T11:51:13.230Z,8.65
2022-10-14T11:53:45.509Z,8.25
2022-10-14T11:56:22.021Z,9.23
2022-10-14T11:58:54.643Z,9.07
2022-10-14T12:01:27.836Z,9.43
2022-10-14T12:03:59.976Z,9.60
2022-10-14T12:06:31.318Z,9.88
2022-10-14T12:09:00.495Z,9.35
2022-10-14T12:11:31.755Z,8.40
2022-10-14T12:14:05.489Z,9.65
2022-10-14T12:16:34.745Z,9.85
2022-10-14T12:19:03.346Z,10.30
2022-10-14T12:21:34.775Z,10.48
2022-10-14T12:24:06.694Z,9.95
2022-10-14T12:26:41.957Z,10.98
2022-10-14T12:29:12.777Z,10.23
2022-10-14T12:31:41.624Z,10.63
2022-10-14T12:34:28.126Z,10.13
2022-10-14T12:36:58.057Z,10.85
2022-10-14T12:39:36.528Z,9.63
2022-10-14T12:42:07.914Z,9.45
2022-10-14T12:44:38.817Z,10.27
2022-10-14T12:47:07.372Z,9.77
2022-10-14T12:49:37.271Z,10.02
2022-10-14T12:52:08.417Z,11.25
2022-10-14T12:54:38.526Z,9.65
2022-10-14T12:57:08.205Z,10.48
2022-10-14T12:59:38.313Z,10.38
2022-10-14T13:02:13.983Z,10.77
2022-10-14T13:04:48.458Z,10.68
2022-10-14T13:07:40.750Z,11.10
2022-10-14T13:10:46.857Z,11.02
2022-10-14T13:13:34.069Z,10.88
2022-10-14T13:16:04.033Z,11.77
2022-10-14T13:18:36.576Z,11.13
2022-10-14T13:21:05.889Z,12.00
2022-10-14T13:23:40.304Z,12.50
2022-10-14T13:26:12.634Z,11.30
2022-10-14T13:28:42.753Z,12.00
2022-10-14T13:31:14.977Z,15.00
2022-10-14T13:33:46.327Z,16.00
2022-10-14T13:36:16.862Z,12.85
2022-10-14T13:38:47.293Z,11.25
2022-10-14T13:41:28.322Z,12.18
2022-10-14T13:44:00.430Z,12.88
2022-10-14T13:46:31.501Z,12.00
2022-10-14T13:49:01.055Z,11.80
2022-10-14T13:51:36.432Z,11.23
2022-10-14T13:54:11.201Z,13.50
2022-10-14T13:56:39.577Z,14.77
2022-10-14T13:59:39.259Z,14.23
2022-10-14T14:02:14.377Z,16.67
2022-10-14T14:04:43.229Z,16.77
2022-10-14T14:07:47.346Z,17.67
2022-10-14T14:10:09.268Z,17.35
2022-10-14T14:12:37.624Z,17.33
2022-10-14T14:15:06.628Z,16.40
2022-10-14T14:17:36.536Z,17.52
2022-10-14T14:20:11.570Z,16.98
2022-10-14T14:22:43.695Z,17.15
2022-10-14T14:25:33.428Z,17.60
2022-10-14T14:28:02.245Z,19.25
2022-10-14T14:30:31.522Z,19.73
2022-10-14T14:33:03.712Z,18.58
2022-10-14T14:35:32.137Z,19.35
2022-10-14T14:38:00.665Z,19.15
2022-10-14T14:40:30.198Z,19.30
2022-10-14T14:43:00.377Z,20.60
2022-10-14T14:45:30.577Z,20.50
2022-10-14T14:47:59.626Z,22.98
2022-10-14T14:50:31.700Z,23.30
2022-10-14T14:53:02.776Z,25.60
2022-10-14T14:55:38.611Z,24.13
2022-10-14T14:58:08.379Z,23.65
2022-10-14T15:00:36.717Z,22.02
2022-10-14T15:03:05.462Z,21.60
2022-10-14T15:05:35.192Z,22.27
2022-10-14T15:08:04.498Z,20.40
2022-10-14T15:10:32.994Z,20.42
2022-10-14T15:13:03.243Z,20.13
2022-10-14T15:15:32.546Z,18.85
2022-10-14T15:18:09.238Z,19.77
2022-10-14T15:20:39.258Z,19.52
2022-10-14T15:23:22.451Z,19.83
2022-10-14T15:25:59.295Z,20.25
2022-10-14T15:28:31.461Z,19.13
2022-10-14T15:31:04.620Z,19.65
2022-10-14T15:33:36.175Z,18.38
2022-10-14T15:36:06.076Z,19.27
2022-10-14T15:38:34.518Z,19.23
2022-10-14T15:41:04.964Z,18.67
2022-10-14T15:43:34.739Z,17.65
2022-10-14T15:46:20.849Z,18.13
2022-10-14T15:48:52.224Z,18.88
2022-10-14T15:51:23.432Z,18.52
2022-10-14T15:53:51.827Z,18.38
2022-10-14T15:56:21.073Z,18.15
2022-10-14T15:58:49.655Z,18.98
2022-10-14T16:01:20.496Z,19.13
2022-10-14T16:03:49.104Z,18.23
2022-10-14T16:06:19.310Z,17.10
2022-10-14T16:08:49.027Z,17.35
2022-10-14T16:11:19.345Z,17.55
2022-10-14T16:13:47.702Z,16.88
2022-10-14T16:16:17.523Z,16.35
2022-10-14T16:18:45.921Z,17.63
2022-10-14T16:21:17.000Z,16.25
2022-10-14T16:23:45.637Z,16.63
2022-10-14T16:26:15.444Z,15.35
2022-10-14T16:28:44.451Z,15.00
2022-10-14T16:31:14.361Z,15.27
2022-10-14T16:33:44.921Z,14.25
2022-10-14T16:36:16.408Z,13.38
2022-10-14T16:38:44.785Z,13.63
2022-10-14T16:41:13.567Z,12.85
2022-10-14T16:43:43.305Z,12.65
2022-10-14T16:46:15.484Z,12.68
2022-10-14T16:48:44.567Z,12.88
2022-10-14T16:51:13.087Z,13.55
2022-10-14T16:53:41.604Z,13.55
2022-10-14T16:56:25.686Z,14.30
2022-10-14T16:58:55.460Z,13.65
2022-10-14T17:01:23.960Z,15.05
2022-10-14T17:03:52.497Z,14.95
2022-10-14T17:06:24.008Z,16.45
2022-10-14T17:08:52.673Z,16.33
2022-10-14T17:11:21.473Z,15.32
2022-10-14T17:13:52.784Z,15.25
2022-10-14T17:16:22.532Z,14.23
2022-10-14T17:18:51.361Z,13.52
2022-10-14T17:21:19.701Z,14.00
2022-10-14T17:23:49.330Z,14.07
2022-10-14T17:26:19.376Z,13.55
2022-10-14T17:28:48.174Z,14.85
2022-10-14T17:31:17.702Z,14.07
2022-10-14T17:33:49.055Z,14.05
2022-10-14T17:36:19.756Z,13.93
2022-10-14T17:38:48.358Z,13.05
2022-10-14T17:41:17.200Z,11.93
2022-10-14T17:43:49.629Z,13.00
2022-10-14T17:46:20.905Z,13.00
2022-10-14T17:48:52.478Z,12.95
2022-10-14T17:51:24.498Z,10.75
2022-10-14T17:53:55.128Z,10.80
2022-10-14T17:56:23.454Z,11.50
2022-10-14T17:58:55.542Z,12.25
2022-10-14T18:01:36.901Z,11.77
2022-10-14T18:04:13.552Z,15.48
2022-10-14T18:06:41.988Z,12.48
2022-10-14T18:09:11.399Z,14.57
2022-10-14T18:12:07.637Z,31.70
2022-10-14T18:14:31.176Z,27.60
2022-10-14T18:16:59.853Z,25.23
2022-10-14T18:19:29.667Z,15.90
2022-10-14T18:21:58.020Z,14.10
2022-10-14T18:24:26.432Z,14.43
2022-10-14T18:26:55.150Z,14.35
2022-10-14T18:29:23.500Z,14.77
2022-10-14T18:34:27.385Z,13.25
2022-10-14T18:36:57.160Z,13.95
2022-10-14T18:39:25.605Z,13.35
2022-10-14T18:41:53.941Z,13.77
2022-10-14T18:44:22.276Z,13.05
2022-10-14T18:46:50.863Z,14.40
2022-10-14T18:49:19.228Z,12.98
2022-10-14T18:51:47.601Z,13.50
2022-10-14T18:54:18.327Z,12.57
2022-10-14T18:56:47.061Z,13.43
2022-10-14T18:59:16.170Z,13.98
2022-10-14T19:01:46.008Z,13.57
2022-10-14T19:04:15.878Z,13.52
2022-10-14T19:06:48.659Z,13.75
2022-10-14T19:09:20.865Z,13.93
2022-10-14T19:11:51.975Z,14.27
2022-10-14T19:14:20.841Z,14.50
2022-10-14T19:16:49.767Z,14.23
2022-10-14T19:19:19.570Z,14.43
2022-10-14T19:21:49.703Z,13.68
2022-10-14T19:24:19.594Z,13.82
2022-10-14T19:26:48.909Z,13.43
2022-10-14T19:29:17.930Z,13.68
2022-10-14T19:31:46.549Z,12.57
2022-10-14T19:34:16.136Z,12.90
2022-10-14T19:36:45.226Z,12.52
2022-10-14T19:39:14.363Z,14.05
2022-10-14T19:41:45.083Z,12.27
2022-10-14T19:44:13.878Z,12.38
2022-10-14T19:46:42.467Z,12.32
2022-10-14T19:49:12.951Z,13.15
2022-10-14T19:51:41.505Z,13.40
2022-10-14T19:54:11.664Z,12.88
2022-10-14T19:56:40.269Z,12.38
2022-10-14T19:59:10.421Z,12.35
2022-10-14T20:01:38.868Z,13.02
2022-10-14T20:04:07.721Z,13.13
2022-10-14T20:06:38.223Z,11.88
2022-10-14T20:09:06.718Z,12.32
2022-10-14T20:11:35.898Z,12.30
2022-10-14T20:14:04.286Z,12.93
2022-10-14T20:16:34.195Z,13.10
2022-10-14T20:19:02.533Z,12.55
2022-10-14T20:21:31.704Z,12.82
2022-10-14T20:24:00.597Z,12.20
2022-10-14T20:26:28.920Z,12.60
2022-10-14T20:28:57.319Z,11.80
2022-10-14T20:31:26.349Z,12.27
2022-10-14T20:33:56.441Z,11.27
2022-10-14T20:36:25.122Z,12.77
2022-10-14T20:38:53.504Z,13.40
2022-10-14T20:41:22.457Z,13.40
2022-10-14T20:43:51.041Z,12.60
2022-10-14T20:46:20.391Z,12.90
2022-10-14T20:48:48.936Z,11.93
2022-10-14T20:51:19.724Z,12.20
2022-10-14T20:53:48.235Z,13.32
2022-10-14T20:56:16.991Z,12.90
2022-10-14T20:58:45.598Z,11.90
2022-10-14T21:01:14.878Z,12.90
2022-10-14T21:03:44.292Z,11.75
2022-10-14T21:06:13.724Z,14.77
2022-10-14T21:08:46.058Z,13.60
2022-10-14T21:11:18.071Z,14.18
2022-10-14T21:13:46.928Z,12.45
2022-10-14T21:16:16.396Z,12.70
2022-10-14T21:18:48.016Z,11.85
2022-10-14T21:21:16.988Z,11.38
2022-10-14T21:23:47.810Z,11.73
2022-10-14T21:26:16.153Z,11.50
2022-10-14T21:28:44.715Z,11.20
2022-10-14T21:31:17.503Z,12.35
2022-10-14T21:33:47.898Z,12.07
2022-10-14T21:36:17.483Z,11.65
2022-10-14T21:38:47.303Z,12.07
2022-10-14T21:41:15.697Z,10.38
2022-10-14T21:43:44.213Z,12.60
2022-10-14T21:46:13.144Z,11.35
2022-10-14T21:48:41.908Z,11.88
2022-10-14T21:51:11.597Z,11.55
2022-10-14T21:53:41.401Z,11.13
2022-10-14T21:56:11.539Z,11.48
2022-10-14T21:58:39.910Z,11.40
2022-10-14T22:01:09.403Z,11.30
2022-10-14T22:03:37.810Z,10.27
2022-10-14T22:06:07.018Z,10.85
2022-10-14T22:08:36.266Z,10.52
2022-10-14T22:11:04.632Z,10.07
2022-10-14T22:13:34.748Z,10.50
2022-10-14T22:16:03.075Z,10.23
2022-10-14T22:18:31.406Z,10.88
2022-10-14T22:21:05.046Z,11.25
2022-10-14T22:23:33.796Z,9.77
2022-10-14T22:26:02.454Z,12.52
2022-10-14T22:28:31.681Z,11.55
2022-10-14T22:31:06.489Z,10.68
2022-10-14T22:33:36.390Z,13.68
2022-10-14T22:36:08.924Z,12.45
2022-10-14T22:38:37.601Z,12.70
2022-10-14T22:41:06.900Z,12.80
2022-10-14T22:43:35.932Z,11.98
2022-10-14T22:46:06.283Z,12.82
2022-10-14T22:48:35.766Z,11.98
2022-10-14T22:51:05.052Z,12.65
2022-10-14T22:53:33.665Z,13.00
2022-10-14T22:56:02.149Z,12.48
2022-10-14T22:58:30.804Z,13.00
2022-10-14T23:01:06.590Z,12.20
2022-10-14T23:03:36.529Z,12.45
2022-10-14T23:06:05.962Z,12.40
2022-10-14T23:08:34.725Z,11.20
2022-10-14T23:11:03.486Z,13.00
2022-10-14T23:13:32.171Z,12.38
2022-10-14T23:16:01.095Z,11.85
2022-10-14T23:18:31.185Z,11.82
2022-10-14T23:21:00.896Z,11.15
2022-10-14T23:23:29.236Z,11.70
2022-10-14T23:25:57.565Z,12.27
2022-10-14T23:28:26.452Z,11.85
2022-10-14T23:30:54.827Z,10.80
2022-10-14T23:33:23.173Z,12.38
2022-10-14T23:35:51.469Z,12.13
2022-10-14T23:38:21.217Z,12.85
2022-10-14T23:40:49.689Z,12.38
2022-10-14T23:43:19.301Z,13.05
2022-10-14T23:45:47.679Z,11.45
2022-10-14T23:48:16.088Z,11.40
2022-10-14T23:50:44.647Z,12.32
2022-10-14T23:53:13.054Z,11.65
2022-10-14T23:55:42.832Z,11.75
2022-10-14T23:58:11.427Z,13.27
